Time;durP1;ratioP1;P1;durP2;ratioP2;P2;SDS_P1;SDS_P2;PMS_P1;PMS_P2;Temp;Humidity;BMP_temperature;BMP_pressure;BME280_temperature;BME280_humidity;BME280_pressure;Samples;Min_cycle;Max_cycle;Signal;HPM_P1;HPM_P2
2021/09/03 00:01:29;;;;;;;12.20;7.72;;;16.70;97.40;;;;;;5065972;28;20032;-74
2021/09/03 00:03:54;;;;;;;12.25;8.68;;;16.70;97.40;;;;;;5065624;28;20470;-74
2021/09/03 00:06:20;;;;;;;11.75;7.70;;;16.70;97.40;;;;;;5066296;28;20088;-73
2021/09/03 00:08:46;;;;;;;11.60;8.00;;;16.70;97.50;;;;;;5084393;28;20035;-75
2021/09/03 00:11:12;;;;;;;12.68;8.27;;;16.70;97.50;;;;;;5086588;28;20033;-72
2021/09/03 00:13:37;;;;;;;11.23;7.78;;;16.60;97.50;;;;;;5087264;28;20028;-73
2021/09/03 00:16:03;;;;;;;11.07;7.72;;;16.60;97.50;;;;;;5069325;28;20046;-72
2021/09/03 00:18:29;;;;;;;11.35;8.10;;;16.60;97.50;;;;;;5087993;28;20055;-72
2021/09/03 00:20:55;;;;;;;11.20;7.63;;;16.60;97.60;;;;;;5088372;28;20098;-74
2021/09/03 00:23:21;;;;;;;12.88;7.82;;;16.60;97.60;;;;;;5086955;28;20032;-73
2021/09/03 00:25:46;;;;;;;12.68;7.93;;;16.60;97.80;;;;;;5087690;28;20024;-75
2021/09/03 00:28:12;;;;;;;12.02;7.90;;;16.60;97.80;;;;;;5068954;28;20036;-74
2021/09/03 00:30:37;;;;;;;11.00;7.18;;;16.60;97.60;;;;;;5069581;28;20080;-75
2021/09/03 00:33:03;;;;;;;10.80;7.30;;;16.60;97.60;;;;;;5086713;28;20128;-72
2021/09/03 00:35:29;;;;;;;11.23;8.05;;;16.60;97.60;;;;;;5069464;28;20324;-73
2021/09/03 00:37:54;;;;;;;11.63;7.32;;;16.60;97.60;;;;;;5069678;28;20031;-73
2021/09/03 00:40:20;;;;;;;11.82;7.57;;;16.60;97.70;;;;;;5068531;28;20035;-74
2021/09/03 00:42:45;;;;;;;11.80;7.63;;;16.60;97.60;;;;;;5068516;28;20024;-72
2021/09/03 00:45:11;;;;;;;11.27;7.50;;;16.60;97.60;;;;;;5086839;28;20036;-74
2021/09/03 00:47:36;;;;;;;12.57;7.97;;;16.60;97.60;;;;;;5086495;28;20028;-74
2021/09/03 00:50:04;;;;;;;11.50;8.13;;;16.60;97.60;;;;;;5069306;28;20020;-73
2021/09/03 00:52:31;;;;;;;12.57;8.20;;;16.60;97.60;;;;;;5068956;28;20482;-73
2021/09/03 00:54:58;;;;;;;12.68;8.30;;;16.60;97.60;;;;;;5068625;28;20546;-74
2021/09/03 00:57:25;;;;;;;10.80;7.70;;;16.60;97.70;;;;;;5068561;28;20031;-73
2021/09/03 00:59:53;;;;;;;12.63;8.20;;;16.50;97.70;;;;;;5086440;28;20054;-72
2021/09/03 01:02:22;;;;;;;11.43;7.95;;;16.60;97.70;;;;;;5068371;28;20110;-73
2021/09/03 01:04:49;;;;;;;12.45;8.52;;;16.50;97.70;;;;;;5086863;28;20028;-75
2021/09/03 01:07:15;;;;;;;11.10;7.85;;;16.50;97.70;;;;;;5086980;28;20034;-73
2021/09/03 01:09:41;;;;;;;13.25;8.52;;;16.60;97.70;;;;;;5086202;28;20035;-74
2021/09/03 01:12:06;;;;;;;12.15;8.40;;;16.60;97.70;;;;;;5086045;28;20044;-74
2021/09/03 01:14:32;;;;;;;11.63;8.15;;;16.50;97.70;;;;;;5086748;28;20031;-74
2021/09/03 01:16:58;;;;;;;11.93;8.10;;;16.50;97.70;;;;;;5086341;28;20510;-74
2021/09/03 01:19:23;;;;;;;12.52;8.02;;;16.50;97.70;;;;;;5086896;28;20027;-74
2021/09/03 01:21:51;;;;;;;12.68;7.95;;;16.50;97.80;;;;;;5067950;28;20199;-73
2021/09/03 01:24:17;;;;;;;13.77;8.10;;;16.50;97.80;;;;;;5086119;28;20039;-73
2021/09/03 01:26:43;;;;;;;12.93;8.23;;;16.50;97.80;;;;;;5086181;28;20499;-72
2021/09/03 01:29:09;;;;;;;11.13;7.75;;;16.50;97.80;;;;;;5068584;28;20032;-73
2021/09/03 01:31:35;;;;;;;12.13;8.35;;;16.40;97.80;;;;;;5086339;28;20522;-72
2021/09/03 01:34:00;;;;;;;12.45;8.80;;;16.50;97.80;;;;;;5085820;28;20040;-72
2021/09/03 01:36:30;;;;;;;12.75;8.30;;;16.50;97.80;;;;;;5068359;28;20024;-74
2021/09/03 01:38:57;;;;;;;13.48;8.63;;;16.50;97.80;;;;;;5086558;28;20101;-73
2021/09/03 01:41:23;;;;;;;11.48;8.13;;;16.50;97.80;;;;;;5085617;28;20063;-74
2021/09/03 01:43:48;;;;;;;11.55;8.73;;;16.50;97.80;;;;;;5086240;28;20055;-73
2021/09/03 01:46:14;;;;;;;13.73;8.82;;;16.50;97.90;;;;;;5086313;28;20036;-74
2021/09/03 01:48:39;;;;;;;11.95;8.57;;;16.50;97.90;;;;;;5067324;28;20024;-73
2021/09/03 01:51:05;;;;;;;13.55;8.73;;;16.50;97.80;;;;;;5067390;28;20036;-73
2021/09/03 01:53:31;;;;;;;12.35;8.48;;;16.40;97.80;;;;;;5068374;28;20050;-74
2021/09/03 01:55:56;;;;;;;12.93;8.55;;;16.40;97.80;;;;;;5067422;28;20024;-72
2021/09/03 01:58:22;;;;;;;12.43;8.70;;;16.50;97.80;;;;;;5067628;28;20039;-73
2021/09/03 02:00:47;;;;;;;11.73;8.35;;;16.40;98.00;;;;;;5085385;28;20094;-72
2021/09/03 02:03:16;;;;;;;12.73;8.73;;;16.40;97.80;;;;;;5085747;28;20028;-73
2021/09/03 02:05:42;;;;;;;12.65;8.38;;;16.40;97.80;;;;;;5067793;28;20104;-72
2021/09/03 02:08:08;;;;;;;13.30;8.75;;;16.40;97.80;;;;;;5085848;28;20452;-74
2021/09/03 02:10:33;;;;;;;12.57;9.10;;;16.40;97.90;;;;;;5067026;28;20109;-72
2021/09/03 02:12:59;;;;;;;12.68;9.07;;;16.40;97.90;;;;;;5067270;28;20028;-73
2021/09/03 02:15:25;;;;;;;12.25;8.48;;;16.50;98.00;;;;;;5067211;28;20050;-74
2021/09/03 02:17:50;;;;;;;12.30;9.05;;;16.40;97.90;;;;;;5067359;28;20751;-73
2021/09/03 02:20:16;;;;;;;13.27;9.10;;;16.40;97.90;;;;;;5067647;28;20476;-74
2021/09/03 02:22:42;;;;;;;13.10;9.25;;;16.30;97.90;;;;;;5066935;28;20056;-73
2021/09/03 02:25:08;;;;;;;13.15;9.32;;;16.40;98.00;;;;;;5067003;28;20487;-73
2021/09/03 02:27:33;;;;;;;12.90;8.98;;;16.40;98.00;;;;;;5067154;28;20169;-73
2021/09/03 02:29:59;;;;;;;13.05;9.10;;;16.40;98.10;;;;;;5085397;28;20119;-73
2021/09/03 02:32:25;;;;;;;14.25;9.23;;;16.40;98.10;;;;;;5066641;28;20024;-74
2021/09/03 02:34:50;;;;;;;12.80;9.23;;;16.30;98.00;;;;;;5085246;28;20035;-74
2021/09/03 02:37:16;;;;;;;12.95;10.07;;;16.40;98.00;;;;;;5067064;28;20027;-73
2021/09/03 02:39:42;;;;;;;14.23;9.95;;;16.30;98.10;;;;;;5081289;28;20480;-73
2021/09/03 02:42:07;;;;;;;13.07;9.85;;;16.40;98.00;;;;;;5074901;28;20032;-73
2021/09/03 02:44:33;;;;;;;14.00;10.05;;;16.30;98.10;;;;;;5055466;28;20030;-74
2021/09/03 02:46:58;;;;;;;14.05;9.65;;;16.30;98.10;;;;;;5066597;28;20032;-72
2021/09/03 02:49:24;;;;;;;13.38;9.85;;;16.30;98.10;;;;;;5067132;28;20077;-74
2021/09/03 02:51:49;;;;;;;14.57;10.60;;;16.30;98.00;;;;;;5067388;28;20047;-73
2021/09/03 02:54:15;;;;;;;14.23;10.27;;;16.30;98.10;;;;;;5084379;28;20032;-74
2021/09/03 02:56:40;;;;;;;13.05;9.65;;;16.30;98.10;;;;;;5084502;28;20150;-74
2021/09/03 02:59:06;;;;;;;13.27;9.98;;;16.30;98.10;;;;;;5066690;28;20039;-74
2021/09/03 03:01:31;;;;;;;13.73;9.93;;;16.30;98.10;;;;;;5066968;28;20038;-73
2021/09/03 03:03:57;;;;;;;15.13;10.10;;;16.30;98.10;;;;;;5084545;28;20031;-73
2021/09/03 03:06:23;;;;;;;13.57;10.45;;;16.30;98.10;;;;;;5084909;28;20027;-74
2021/09/03 03:08:48;;;;;;;15.63;10.70;;;16.30;98.10;;;;;;5084939;28;20013;-72
2021/09/03 03:11:14;;;;;;;13.90;10.20;;;16.30;98.10;;;;;;5066548;28;20096;-74
2021/09/03 03:13:46;;;;;;;14.30;10.32;;;16.30;98.20;;;;;;5084197;28;20051;-73
2021/09/03 03:16:13;;;;;;;14.18;10.00;;;16.30;98.20;;;;;;5066662;28;20027;-74
2021/09/03 03:18:38;;;;;;;14.23;10.18;;;16.30;98.20;;;;;;5065183;28;20028;-73
2021/09/03 03:21:04;;;;;;;14.15;9.82;;;16.30;98.20;;;;;;5081427;28;20574;-72
2021/09/03 03:23:29;;;;;;;13.50;9.80;;;16.30;98.20;;;;;;5066012;28;20483;-74
2021/09/03 03:25:55;;;;;;;12.98;9.68;;;16.30;98.30;;;;;;5065984;28;20031;-72
2021/09/03 03:28:21;;;;;;;14.02;10.18;;;16.30;98.20;;;;;;5065950;28;20055;-72
2021/09/03 03:30:46;;;;;;;15.25;10.25;;;16.30;98.30;;;;;;5084398;28;20342;-71
2021/09/03 03:33:12;;;;;;;14.15;10.52;;;16.20;98.30;;;;;;5066375;28;20024;-72
2021/09/03 03:35:38;;;;;;;15.02;10.27;;;16.20;98.30;;;;;;5066541;28;20119;-73
2021/09/03 03:38:03;;;;;;;13.30;9.63;;;16.20;98.30;;;;;;5066226;28;20032;-72
2021/09/03 03:40:29;;;;;;;14.77;10.15;;;16.20;98.30;;;;;;5066932;28;20419;-72
2021/09/03 03:42:55;;;;;;;13.63;9.63;;;16.20;98.30;;;;;;5066024;28;20020;-73
2021/09/03 03:45:20;;;;;;;14.60;10.40;;;16.20;98.30;;;;;;5089250;28;20034;-73
2021/09/03 03:47:46;;;;;;;12.88;10.13;;;16.20;98.30;;;;;;5088436;28;20036;-73
2021/09/03 03:50:12;;;;;;;13.10;9.75;;;16.20;98.30;;;;;;5069966;28;20028;-73
2021/09/03 03:52:38;;;;;;;15.23;9.95;;;16.20;98.30;;;;;;5069539;28;20031;-72
2021/09/03 03:55:04;;;;;;;15.20;10.13;;;16.20;98.40;;;;;;5069507;28;20119;-73
2021/09/03 03:57:30;;;;;;;16.17;10.52;;;16.20;98.40;;;;;;5070026;28;20036;-72
2021/09/03 03:59:55;;;;;;;15.85;10.75;;;16.20;98.40;;;;;;5088321;28;20462;-73
2021/09/03 04:02:21;;;;;;;14.30;9.98;;;16.20;98.30;;;;;;5065663;28;20063;-73
2021/09/03 04:04:47;;;;;;;13.45;10.57;;;16.10;98.50;;;;;;5075956;28;20736;-74
2021/09/03 04:07:12;;;;;;;13.60;10.50;;;16.20;98.40;;;;;;5069308;28;20046;-72
2021/09/03 04:09:38;;;;;;;13.90;10.23;;;16.20;98.30;;;;;;5088153;28;20031;-76
2021/09/03 04:12:04;;;;;;;14.05;10.52;;;16.20;98.30;;;;;;5069859;28;20464;-73
2021/09/03 04:14:29;;;;;;;15.30;10.15;;;16.20;98.30;;;;;;5087570;28;20024;-73
2021/09/03 04:16:55;;;;;;;14.50;10.77;;;16.20;98.40;;;;;;5087011;28;20020;-72
2021/09/03 04:19:20;;;;;;;14.90;10.45;;;16.20;98.40;;;;;;5059781;28;20031;-73
2021/09/03 04:21:46;;;;;;;13.43;9.90;;;16.20;98.30;;;;;;5067535;28;20475;-73
2021/09/03 04:24:11;;;;;;;15.65;10.70;;;16.10;98.40;;;;;;5068918;28;20824;-72
2021/09/03 04:26:37;;;;;;;40.00;11.40;;;16.20;98.30;;;;;;5069510;28;20089;-74
2021/09/03 04:29:03;;;;;;;14.05;10.70;;;16.10;98.40;;;;;;5069758;28;20031;-73
2021/09/03 04:31:28;;;;;;;14.38;10.88;;;16.10;98.40;;;;;;5087570;28;20383;-73
2021/09/03 04:33:54;;;;;;;13.82;10.38;;;16.10;98.30;;;;;;5086158;28;20032;-74
2021/09/03 04:36:19;;;;;;;13.55;10.70;;;16.10;98.40;;;;;;5086112;28;20511;-74
2021/09/03 04:38:45;;;;;;;14.02;10.63;;;16.10;98.40;;;;;;5068609;28;20031;-73
2021/09/03 04:41:10;;;;;;;16.17;10.23;;;16.10;98.40;;;;;;5085363;28;20365;-74
2021/09/03 04:43:36;;;;;;;14.60;10.77;;;16.10;98.40;;;;;;5083011;28;20016;-74
2021/09/03 04:46:02;;;;;;;13.07;10.07;;;16.10;98.40;;;;;;5064507;28;20024;-73
2021/09/03 04:48:27;;;;;;;15.43;10.52;;;16.10;98.70;;;;;;5069678;28;20511;-74
2021/09/03 04:50:53;;;;;;;12.60;10.05;;;16.10;98.30;;;;;;5086814;28;20028;-71
2021/09/03 04:53:19;;;;;;;13.35;9.48;;;16.10;98.20;;;;;;5055482;28;20039;-73
2021/09/03 04:55:44;;;;;;;16.42;10.05;;;16.20;98.00;;;;;;5081640;28;20036;-74
2021/09/03 04:58:10;;;;;;;16.67;10.57;;;16.20;98.10;;;;;;5081265;28;20031;-74
2021/09/03 05:00:35;;;;;;;16.02;10.65;;;16.20;98.00;;;;;;5056896;28;20038;-72
2021/09/03 05:03:01;;;;;;;16.38;10.48;;;16.20;98.00;;;;;;5085850;28;20484;-74
2021/09/03 05:05:27;;;;;;;13.27;9.40;;;16.20;98.00;;;;;;5067464;28;20064;-75
2021/09/03 05:07:52;;;;;;;15.25;9.77;;;16.20;98.00;;;;;;5060285;28;20020;-73
2021/09/03 05:10:18;;;;;;;15.60;10.07;;;16.20;98.00;;;;;;5076402;28;20039;-74
2021/09/03 05:12:43;;;;;;;14.57;9.95;;;16.20;97.90;;;;;;5072841;28;20039;-72
2021/09/03 05:15:12;;;;;;;12.82;9.20;;;16.20;97.90;;;;;;5060485;28;20033;-73
2021/09/03 05:17:50;;;;;;;16.65;9.93;;;16.20;98.30;;;;;;5066053;28;20024;-74
2021/09/03 05:20:17;;;;;;;14.43;9.27;;;16.20;98.40;;;;;;5058551;28;20097;-73
2021/09/03 05:22:43;;;;;;;14.10;10.13;;;16.20;98.70;;;;;;5064987;28;20487;-73
2021/09/03 05:25:09;;;;;;;12.07;9.40;;;16.10;98.80;;;;;;5067274;28;20032;-73
2021/09/03 05:27:36;;;;;;;14.35;9.75;;;16.10;98.80;;;;;;5068473;28;20491;-73
2021/09/03 05:30:03;;;;;;;12.73;9.05;;;16.10;98.30;;;;;;5067160;28;20024;-73
2021/09/03 05:32:29;;;;;;;11.85;8.82;;;16.10;98.30;;;;;;5067650;28;20556;-72
2021/09/03 05:34:54;;;;;;;13.07;8.35;;;16.10;98.40;;;;;;5084733;28;20028;-74
2021/09/03 05:37:20;;;;;;;12.15;8.80;;;16.00;97.60;;;;;;5068677;28;20275;-73
2021/09/03 05:39:45;;;;;;;11.63;8.20;;;16.10;97.20;;;;;;5067963;28;20119;-73
2021/09/03 05:42:11;;;;;;;13.52;8.35;;;16.00;96.70;;;;;;5068256;28;20065;-73
2021/09/03 05:44:38;;;;;;;14.02;8.27;;;16.10;96.60;;;;;;5085798;28;20020;-73
2021/09/03 05:47:03;;;;;;;10.73;7.65;;;16.10;96.50;;;;;;5086385;28;20035;-73
2021/09/03 05:49:29;;;;;;;13.50;8.20;;;16.10;96.40;;;;;;5086144;28;20032;-72
2021/09/03 05:51:55;;;;;;;12.45;8.52;;;16.20;96.30;;;;;;5086130;28;20492;-74
2021/09/03 05:54:20;;;;;;;11.32;7.55;;;16.20;96.40;;;;;;5085956;28;20035;-74
2021/09/03 05:56:46;;;;;;;10.38;7.93;;;16.20;96.50;;;;;;5067951;28;20020;-73
2021/09/03 05:59:11;;;;;;;10.55;7.55;;;16.20;96.50;;;;;;5067734;28;20035;-72
2021/09/03 06:01:37;;;;;;;11.93;7.90;;;16.20;96.50;;;;;;5086121;28;20039;-73
2021/09/03 06:04:02;;;;;;;9.70;7.78;;;16.20;96.60;;;;;;5067256;28;20539;-73
2021/09/03 06:06:28;;;;;;;13.80;7.80;;;16.20;96.70;;;;;;5067872;28;20043;-73
2021/09/03 06:08:53;;;;;;;10.27;7.65;;;16.20;96.60;;;;;;5067782;28;20498;-73
2021/09/03 06:11:26;;;;;;;11.18;7.97;;;16.20;96.60;;;;;;5067531;28;20126;-71
2021/09/03 06:13:52;;;;;;;12.55;7.70;;;16.20;96.50;;;;;;5085443;28;20019;-73
2021/09/03 06:16:18;;;;;;;10.95;7.45;;;16.30;96.60;;;;;;5085694;28;20131;-73
2021/09/03 06:18:43;;;;;;;9.75;7.38;;;16.30;96.50;;;;;;5085952;28;20107;-74
2021/09/03 06:21:09;;;;;;;9.45;7.18;;;16.30;96.50;;;;;;5067423;28;20055;-74
2021/09/03 06:23:35;;;;;;;9.73;7.25;;;16.30;96.60;;;;;;5067234;28;20044;-74
2021/09/03 06:26:00;;;;;;;9.27;7.40;;;16.30;96.60;;;;;;5067383;28;20583;-74
2021/09/03 06:28:26;;;;;;;10.27;7.43;;;16.30;96.50;;;;;;5067507;28;20028;-74
2021/09/03 06:30:51;;;;;;;9.43;7.03;;;16.30;96.60;;;;;;5067319;28;20020;-72
2021/09/03 06:33:17;;;;;;;9.15;6.97;;;16.30;96.60;;;;;;5084959;28;20028;-72
2021/09/03 06:35:42;;;;;;;9.32;7.35;;;16.30;96.60;;;;;;5067205;28;20048;-74
2021/09/03 06:38:09;;;;;;;8.80;6.78;;;16.30;96.60;;;;;;5085471;28;20054;-71
2021/09/03 06:40:35;;;;;;;8.98;6.63;;;16.30;96.60;;;;;;5067269;28;20099;-73
2021/09/03 06:43:00;;;;;;;11.57;7.32;;;16.40;96.70;;;;;;5085228;28;20557;-73
2021/09/03 06:45:26;;;;;;;7.72;6.35;;;16.40;96.70;;;;;;5067443;28;20035;-73
2021/09/03 06:47:51;;;;;;;9.20;6.45;;;16.40;96.60;;;;;;5067477;28;20128;-74
2021/09/03 06:50:18;;;;;;;8.90;6.78;;;16.40;96.60;;;;;;5085098;28;20032;-74
2021/09/03 06:52:44;;;;;;;8.73;7.15;;;16.40;96.70;;;;;;5066794;28;20032;-73
2021/09/03 06:55:10;;;;;;;8.68;6.72;;;16.40;96.70;;;;;;5084972;28;20035;-74
2021/09/03 06:57:38;;;;;;;7.95;6.45;;;16.40;96.60;;;;;;5067030;28;20103;-73
2021/09/03 07:00:05;;;;;;;8.95;6.30;;;16.40;96.50;;;;;;5085104;28;20024;-74
2021/09/03 07:02:30;;;;;;;8.45;6.60;;;16.40;96.60;;;;;;5066725;28;20037;-73
2021/09/03 07:04:56;;;;;;;8.68;6.78;;;16.40;96.60;;;;;;5066724;28;20028;-73
2021/09/03 07:07:21;;;;;;;9.07;6.75;;;16.40;96.50;;;;;;5085031;28;20143;-74
2021/09/03 07:09:47;;;;;;;8.68;6.53;;;16.40;96.60;;;;;;5085154;28;20405;-74
2021/09/03 07:12:12;;;;;;;8.48;6.10;;;16.40;96.60;;;;;;5084931;28;20455;-73
2021/09/03 07:14:38;;;;;;;9.13;6.28;;;16.50;96.60;;;;;;5066561;28;20077;-72
2021/09/03 07:17:06;;;;;;;8.10;6.65;;;16.40;96.60;;;;;;5066893;28;20503;-71
2021/09/03 07:19:33;;;;;;;9.60;6.60;;;16.50;96.60;;;;;;5069719;28;20035;-74
2021/09/03 07:21:58;;;;;;;8.00;6.38;;;16.50;96.60;;;;;;5070960;28;20479;-75
2021/09/03 07:24:24;;;;;;;9.65;6.22;;;16.50;96.50;;;;;;5088796;28;20043;-74
2021/09/03 07:26:49;;;;;;;8.13;6.10;;;16.50;96.50;;;;;;5088841;28;20426;-73
2021/09/03 07:29:15;;;;;;;7.90;6.03;;;16.50;96.60;;;;;;5070822;28;20563;-74
2021/09/03 07:31:41;;;;;;;9.05;6.57;;;16.50;96.50;;;;;;5088712;28;20032;-72
2021/09/03 07:34:06;;;;;;;7.70;6.15;;;16.50;96.50;;;;;;5070256;28;20081;-73
2021/09/03 07:36:32;;;;;;;8.55;6.68;;;16.50;96.50;;;;;;5070622;28;20020;-72
2021/09/03 07:38:57;;;;;;;8.00;6.28;;;16.50;96.40;;;;;;5088719;28;20102;-74
2021/09/03 07:41:23;;;;;;;8.95;6.47;;;16.60;96.60;;;;;;5070670;28;20119;-74
2021/09/03 07:43:49;;;;;;;9.68;6.78;;;16.60;96.50;;;;;;5069976;28;20016;-74
2021/09/03 07:46:15;;;;;;;8.88;6.63;;;16.60;96.40;;;;;;5088618;28;20032;-74
2021/09/03 07:48:40;;;;;;;9.32;6.63;;;16.60;96.50;;;;;;5088388;28;20032;-74
2021/09/03 07:51:06;;;;;;;8.45;6.57;;;16.70;96.40;;;;;;5088879;28;20036;-75
2021/09/03 07:53:31;;;;;;;8.63;6.18;;;16.60;96.40;;;;;;5069785;28;20042;-72
2021/09/03 07:55:57;;;;;;;8.02;6.32;;;16.60;96.40;;;;;;5070231;28;20024;-74
2021/09/03 07:58:23;;;;;;;8.13;6.35;;;16.70;96.30;;;;;;5088417;28;20067;-72
2021/09/03 08:00:48;;;;;;;8.77;6.53;;;16.70;96.30;;;;;;5070217;28;20127;-73
2021/09/03 08:03:14;;;;;;;8.93;6.90;;;16.70;96.30;;;;;;5088148;28;20036;-72
2021/09/03 08:05:39;;;;;;;8.57;6.13;;;16.70;96.20;;;;;;5088205;28;20218;-74
2021/09/03 08:08:06;;;;;;;9.40;6.95;;;16.70;96.20;;;;;;5070136;28;20054;-73
2021/09/03 08:10:32;;;;;;;9.40;7.03;;;16.80;96.20;;;;;;5069390;28;20028;-73
2021/09/03 08:13:03;;;;;;;8.63;6.93;;;16.80;96.10;;;;;;5086665;28;20034;-71
2021/09/03 08:15:30;;;;;;;8.40;6.53;;;16.80;96.10;;;;;;5087535;28;20028;-72
2021/09/03 08:17:56;;;;;;;9.77;7.20;;;16.80;96.00;;;;;;5086152;28;20024;-74
2021/09/03 08:20:22;;;;;;;9.68;7.00;;;16.90;95.90;;;;;;5083105;28;20021;-73
2021/09/03 08:22:50;;;;;;;9.02;7.03;;;17.00;95.80;;;;;;5059956;28;20073;-73
2021/09/03 08:25:19;;;;;;;9.52;7.15;;;17.10;95.50;;;;;;5073118;28;20496;-74
2021/09/03 08:27:46;;;;;;;9.05;7.10;;;17.10;95.40;;;;;;5049107;28;20292;-73
2021/09/03 08:30:12;;;;;;;8.02;6.32;;;17.10;95.30;;;;;;5058138;28;20410;-73
2021/09/03 08:32:38;;;;;;;8.85;7.05;;;17.10;95.50;;;;;;5064616;28;20062;-71
2021/09/03 08:35:04;;;;;;;8.70;6.43;;;17.20;95.20;;;;;;5073894;28;20119;-71
2021/09/03 08:37:29;;;;;;;9.02;6.85;;;17.40;94.90;;;;;;5076162;28;20020;-72
2021/09/03 08:39:56;;;;;;;9.35;7.05;;;17.40;94.70;;;;;;5082175;28;20383;-73
2021/09/03 08:42:30;;;;;;;9.43;7.28;;;17.40;94.70;;;;;;5073919;28;20219;-73
2021/09/03 08:44:56;;;;;;;8.80;7.03;;;17.50;94.70;;;;;;5068111;28;20020;-74
2021/09/03 08:47:22;;;;;;;10.18;7.18;;;17.50;94.80;;;;;;5075557;28;20039;-74
2021/09/03 08:49:50;;;;;;;9.07;7.18;;;17.50;94.70;;;;;;5067300;28;20384;-73
2021/09/03 08:52:17;;;;;;;9.02;6.97;;;17.50;94.60;;;;;;5055082;28;20047;-72
2021/09/03 08:54:42;;;;;;;10.10;6.85;;;17.60;94.60;;;;;;5085515;28;20024;-72
2021/09/03 08:57:11;;;;;;;9.85;7.53;;;17.60;94.50;;;;;;5067756;28;20023;-73
2021/09/03 08:59:36;;;;;;;9.20;7.20;;;17.60;94.50;;;;;;5061020;28;20437;-74
2021/09/03 09:02:13;;;;;;;10.48;7.68;;;17.60;94.50;;;;;;5061126;28;20020;-74
2021/09/03 09:04:45;;;;;;;8.90;7.10;;;17.60;94.40;;;;;;5079681;28;20418;-73
2021/09/03 09:07:11;;;;;;;10.18;7.43;;;17.60;94.40;;;;;;5075035;28;20039;-71
2021/09/03 09:09:42;;;;;;;14.02;9.07;;;17.60;94.40;;;;;;5066553;28;20070;-74
2021/09/03 09:12:13;;;;;;;30.95;10.63;;;17.50;94.50;;;;;;5056659;28;20031;-74
2021/09/03 09:15:00;;;;;;;60.17;12.77;;;17.60;94.80;;;;;;5078075;28;20036;-74
2021/09/03 09:17:35;;;;;;;54.67;13.93;;;17.60;95.00;;;;;;5084231;28;20565;-74
2021/09/03 09:20:05;;;;;;;883.65;88.72;;;17.60;95.10;;;;;;5054640;28;20023;-73
2021/09/03 09:22:49;;;;;;;410.83;39.88;;;17.60;95.20;;;;;;5078908;28;20039;-74
2021/09/03 09:25:25;;;;;;;390.38;41.65;;;17.60;94.90;;;;;;5081151;28;20032;-73
2021/09/03 09:27:51;;;;;;;328.10;34.05;;;17.60;95.00;;;;;;5063085;28;20119;-72
2021/09/03 09:30:26;;;;;;;195.07;26.05;;;17.60;95.20;;;;;;5049202;28;20135;-73
2021/09/03 09:33:12;;;;;;;183.88;24.02;;;17.60;95.20;;;;;;5053933;28;20557;-74
2021/09/03 09:35:44;;;;;;;213.45;27.02;;;17.60;95.30;;;;;;5050064;28;20028;-74
2021/09/03 09:38:10;;;;;;;169.30;25.08;;;17.60;95.20;;;;;;5080546;28;20647;-74
2021/09/03 09:40:53;;;;;;;147.75;24.20;;;17.60;95.30;;;;;;5084475;28;20031;-73
2021/09/03 09:43:40;;;;;;;156.23;22.70;;;17.60;95.30;;;;;;5061408;28;20407;-72
2021/09/03 09:46:17;;;;;;;125.38;21.83;;;17.60;95.50;;;;;;5080426;28;20148;-73
2021/09/03 09:48:48;;;;;;;120.82;20.80;;;17.60;95.50;;;;;;5075658;28;20075;-74
2021/09/03 09:51:29;;;;;;;138.18;22.88;;;17.60;95.40;;;;;;5078042;28;20043;-74
2021/09/03 09:53:59;;;;;;;145.85;21.58;;;17.50;95.40;;;;;;5062451;28;20040;-74
2021/09/03 09:56:25;;;;;;;89.60;19.10;;;17.60;95.50;;;;;;5075347;28;20021;-74
2021/09/03 09:58:55;;;;;;;77.70;18.67;;;17.50;95.60;;;;;;5056469;28;20036;-72
2021/09/03 10:01:22;;;;;;;1999.90;298.25;;;17.60;95.60;;;;;;5063140;28;20024;-72
2021/09/03 10:03:49;;;;;;;1999.90;455.42;;;17.60;95.60;;;;;;5074362;28;20027;-73
2021/09/03 10:06:19;;;;;;;1999.90;425.85;;;17.70;95.60;;;;;;5048649;28;20056;-73
2021/09/03 10:08:46;;;;;;;1999.90;284.55;;;17.60;95.50;;;;;;5061518;28;20035;-73
2021/09/03 10:11:30;;;;;;;1999.90;265.83;;;17.70;95.40;;;;;;5084944;28;20724;-74
2021/09/03 10:13:56;;;;;;;1331.80;178.88;;;17.60;95.40;;;;;;5052026;28;20029;-72
2021/09/03 10:16:22;;;;;;;1080.93;140.48;;;17.70;95.40;;;;;;5076815;28;20024;-72
2021/09/03 10:18:54;;;;;;;755.97;98.65;;;17.70;95.40;;;;;;5061288;28;20359;-72
2021/09/03 10:21:21;;;;;;;;;;;17.70;95.30;;;;;;5058088;28;20032;-72
2021/09/03 10:23:51;;;;;;;976.72;130.10;;;17.90;95.10;;;;;;5065028;28;19908;-71
2021/09/03 10:26:24;;;;;;;816.53;109.85;;;17.80;95.00;;;;;;5066123;28;20042;-75
2021/09/03 10:29:21;;;;;;;601.97;81.13;;;17.90;95.10;;;;;;5048292;28;20471;-72
2021/09/03 10:37:19;;;;;;;386.95;50.13;;;17.80;95.10;;;;;;5078679;28;20161;-75
2021/09/03 10:39:58;;;;;;;296.02;39.50;;;17.90;94.60;;;;;;5083404;28;20070;-73
2021/09/03 10:42:36;;;;;;;422.17;53.83;;;17.80;94.50;;;;;;5059132;28;20020;-72
2021/09/03 10:45:02;;;;;;;511.23;60.35;;;17.80;94.70;;;;;;5065680;28;20086;-73
2021/09/03 10:47:32;;;;;;;769.17;102.55;;;17.80;94.90;;;;;;5072707;28;20028;-75
2021/09/03 10:49:58;;;;;;;482.02;59.53;;;17.80;95.00;;;;;;5058718;28;20027;-75
2021/09/03 10:52:24;;;;;;;1319.22;134.88;;;17.80;94.80;;;;;;5084249;28;20020;-73
2021/09/03 10:54:50;;;;;;;685.42;76.95;;;17.90;95.50;;;;;;5083714;28;20028;-74
2021/09/03 10:57:16;;;;;;;698.28;82.32;;;17.90;95.00;;;;;;5066796;28;20028;-73
2021/09/03 11:00:14;;;;;;;1999.90;961.55;;;18.00;95.30;;;;;;5066476;28;20039;-76
2021/09/03 11:02:40;;;;;;;1999.90;718.28;;;18.20;95.70;;;;;;5064870;28;20037;-74
2021/09/03 16:12:11;;;;;;;52.95;15.52;;;19.10;88.10;;;;;;5102639;27;20313;-60
2021/09/03 16:14:36;;;;;;;41.42;14.30;;;19.20;86.90;;;;;;5067107;28;20400;-61
2021/09/03 16:17:06;;;;;;;46.95;16.05;;;19.10;87.40;;;;;;5061040;28;20036;-59
2021/09/03 16:19:32;;;;;;;46.10;14.98;;;19.10;88.10;;;;;;5061521;28;20025;-60
2021/09/03 16:21:58;;;;;;;30.75;14.77;;;19.10;88.30;;;;;;5061206;28;20032;-61
2021/09/03 16:24:23;;;;;;;20.70;13.13;;;19.20;86.90;;;;;;5061598;28;20021;-62
2021/09/03 16:26:49;;;;;;;25.40;13.93;;;19.20;85.80;;;;;;5068017;28;20532;-61
2021/09/03 16:29:14;;;;;;;28.02;14.90;;;19.20;86.50;;;;;;5060447;28;20029;-59
2021/09/03 16:31:40;;;;;;;29.08;14.52;;;19.10;87.60;;;;;;5061765;28;20041;-60
2021/09/03 16:34:06;;;;;;;24.13;12.82;;;19.10;88.40;;;;;;5061420;28;20025;-62
2021/09/03 16:36:32;;;;;;;24.33;13.43;;;19.10;89.20;;;;;;5061965;28;20025;-61
2021/09/03 16:38:57;;;;;;;23.48;13.60;;;19.00;89.40;;;;;;5059025;28;20021;-60
2021/09/03 16:41:23;;;;;;;23.63;12.73;;;19.00;89.30;;;;;;5068799;28;20024;-60
2021/09/03 16:43:49;;;;;;;25.00;13.63;;;18.90;90.10;;;;;;5067839;28;20373;-62
2021/09/03 16:46:17;;;;;;;29.55;13.18;;;18.70;90.80;;;;;;5108175;27;20036;-62
2021/09/03 16:48:43;;;;;;;30.55;13.60;;;18.60;90.80;;;;;;5078763;28;20115;-61
2021/09/03 16:51:08;;;;;;;27.92;12.90;;;18.60;91.00;;;;;;5061972;28;20108;-61
2021/09/03 16:53:34;;;;;;;27.73;13.68;;;18.50;91.20;;;;;;5060271;28;20544;-60
2021/09/03 16:55:59;;;;;;;27.13;13.55;;;18.50;91.40;;;;;;5061340;28;20774;-63
2021/09/03 16:58:25;;;;;;;32.22;13.63;;;18.50;91.70;;;;;;5071712;28;20445;-60
2021/09/03 17:00:50;;;;;;;31.30;13.57;;;18.40;91.70;;;;;;5060146;28;20033;-61
2021/09/03 17:03:16;;;;;;;28.05;13.35;;;18.40;91.90;;;;;;5063547;28;20492;-62
2021/09/03 17:05:42;;;;;;;28.40;12.77;;;18.40;91.90;;;;;;5060872;28;20028;-61
2021/09/03 17:08:08;;;;;;;30.40;13.63;;;18.40;92.00;;;;;;5068441;28;20029;-61
2021/09/03 17:10:34;;;;;;;25.30;12.75;;;18.40;92.20;;;;;;5060097;28;20512;-61
2021/09/03 17:12:59;;;;;;;31.02;12.38;;;18.40;92.20;;;;;;5061126;28;20044;-60
2021/09/03 17:15:25;;;;;;;31.35;13.07;;;18.40;92.20;;;;;;5061263;28;20033;-61
2021/09/03 17:17:51;;;;;;;26.85;12.52;;;18.30;92.20;;;;;;5058846;28;20036;-61
2021/09/03 17:20:16;;;;;;;24.33;12.00;;;18.30;92.30;;;;;;5060197;28;20033;-63
